Jeppesen Maersk — OWTW2 — position and weather

sailwx.info

Track history (hours):
 
Tides and Currents Weather Stations Pressure Air Temp Water Temp Dewpoint Dewpoint Depression Visibility Wind Speed Wind Dir Waves Ship Positions

Jeppesen Maersk

Last reported at 2017-Dec-15 12:00 UTC. Time now 2017-Dec-15 16:09 UTC.
Position S 21°30' E 150°24'.

Type: Ship (hazmat cat A). MMSI: 219953000.

Wind from 120 at 16 knots

Barometer 1012.9 mb
Air temperature 26.2 ° C
Visibility: greater than 10.8 NM
Dewpoint 23.0 ° C
Water temperature 27.0 ° C

Date/timePositionNaut miles runAvg speedWind from/ knotsBaromVisibWave heightAir tempDewpointWater temp
2017-Dec-15 12:00S 21°30' E 150°24'18015.0 120 / 161012.910.8 26.223.027.0
2017-Dec-15 00:00S 23°18' E 153°00'17614.7 110 / 171012.910.8 27.221.726.0
2017-Dec-14 12:00S 24°54' E 155°42'9415.7 110 / 161013.7 25.020.627.0
2017-Dec-14 06:00S 25°42' E 157°12'8914.9 130 / 161011.510.8 26.024.626.0
2017-Dec-14 00:00S 26°30' E 158°36'8914.8 120 / 171014.210.8 27.119.125.0
2017-Dec-13 18:00S 27°18' E 160°00'9315.5 120 / 151013.310.8 22.118.825.0
2017-Dec-13 12:00S 28°06' E 161°30'9315.4 090 / 141015.610.8 23.918.624.0
2017-Dec-13 06:00S 28°54' E 163°00'35314.7 100 / 81014.010.8 26.019.9
2017-Dec-12 06:00S 32°00' E 168°48'17214.3 170 / 91014.610.8 22.015.3
2017-Dec-11 18:00S 33°30' E 171°42'17614.7 130 / 121015.310.8 19.017.420.0
2017-Dec-11 06:00S 35°12' E 174°36'6215.6 010 / 121016.010.8 21.016.021.0
2017-Dec-11 01:59S 36°11' E 174°59'5 9.9
2017-Dec-11 01:30S 36°16' E 174°59'5 9.8
2017-Dec-11 01:00S 36°21' E 174°60'5 9.9
2017-Dec-11 00:30S 36°26' E 174°59'5 9.8
2017-Dec-11 00:00S 36°31' E 174°60'5 9.4
2017-Dec-10 23:30S 36°36' E 174°58'5 9.8
2017-Dec-10 23:00S 36°40' E 174°55'5 9.9
2017-Dec-10 22:29S 36°44' E 174°51'5 9.9
2017-Dec-10 22:00S 36°48' E 174°49'3 5.4
2017-Dec-10 21:29S 36°50' E 174°47'0 0.5
2017-Dec-10 21:00S 36°51' E 174°47'0 0.0
2017-Dec-10 17:46S 36°51' E 174°47'0 0.0
2017-Dec-10 17:10S 36°51' E 174°47'0 0.0
2017-Dec-10 16:40S 36°51' E 174°47'0 0.0
2017-Dec-10 16:22S 36°51' E 174°47'0 0.0
2017-Dec-10 14:52S 36°51' E 174°47'0 0.0
2017-Dec-10 12:46S 36°51' E 174°47'0 0.0
2017-Dec-10 12:28S 36°51' E 174°47'0 0.0
2017-Dec-10 11:53S 36°51' E 174°47'0 0.5
2017-Dec-10 11:30S 36°50' E 174°47'3 5.7
2017-Dec-10 11:01S 36°49' E 174°50'510.5
2017-Dec-10 10:31S 36°44' E 174°51'5 9.2
2017-Dec-10 10:01S 36°40' E 174°55'5 9.2
2017-Dec-10 09:31S 36°37' E 174°59'5 9.4
2017-Dec-10 09:00S 36°34' E 175°03'5 9.5
2017-Dec-10 08:31S 36°31' E 175°08'5 9.8
2017-Dec-10 08:00S 36°28' E 175°13'5 9.7
2017-Dec-10 07:31S 36°25' E 175°17'7913.9
2017-Dec-10 01:52S 37°27' E 176°16'617.6
2017-Dec-10 01:31S 37°33' E 176°13'611.2
2017-Dec-10 01:01S 37°38' E 176°10'2 3.5
2017-Dec-10 00:30S 37°40' E 176°11'0 0.0
2017-Dec-10 00:00S 37°40' E 176°11'0 0.0
2017-Dec-09 23:30S 37°40' E 176°11'0 0.0
2017-Dec-09 23:00S 37°40' E 176°11'0 0.0
2017-Dec-09 22:30S 37°40' E 176°11'0 0.0
2017-Dec-09 22:00S 37°40' E 176°11'0 0.0
2017-Dec-09 21:30S 37°40' E 176°11'0 0.0
2017-Dec-09 21:00S 37°40' E 176°11'0 0.0
2017-Dec-09 20:30S 37°40' E 176°11'0 0.0
2017-Dec-09 20:00S 37°40' E 176°11'0 0.0
2017-Dec-09 19:30S 37°40' E 176°11'0 0.0
2017-Dec-09 19:00S 37°40' E 176°11'0 0.0
2017-Dec-09 18:30S 37°40' E 176°11'0 0.0
2017-Dec-09 18:00S 37°40' E 176°11'0 0.0
2017-Dec-09 17:30S 37°40' E 176°11'0 0.0
2017-Dec-09 17:00S 37°40' E 176°11'0 0.0
2017-Dec-09 16:30S 37°40' E 176°11'0 0.0
2017-Dec-09 16:00S 37°40' E 176°11'0 0.0
2017-Dec-09 15:30S 37°40' E 176°11'0 0.0
2017-Dec-09 15:00S 37°40' E 176°11'0 0.0
2017-Dec-09 14:30S 37°40' E 176°11'0 0.0
2017-Dec-09 14:00S 37°40' E 176°11'0 0.0
2017-Dec-09 13:30S 37°40' E 176°11'0 0.0
2017-Dec-09 13:00S 37°40' E 176°11'0 0.0
2017-Dec-09 12:30S 37°40' E 176°11'1 2.0
2017-Dec-09 12:00S 37°39' E 176°11'4 8.3
2017-Dec-09 11:30S 37°35' E 176°12'714.8
2017-Dec-09 11:01S 37°28' E 176°16'914.8
2017-Dec-09 10:24S 37°24' E 176°26'180 4.5
2017-Dec-07 18:00S 40°24' E 176°42'   040 / 101020.010.8 17.815.317.0
Track history (hours):
 
Tides and Currents Weather Stations Pressure Air Temp Water Temp Dewpoint Dewpoint Depression Visibility Wind Speed Wind Dir Waves Ship Positions

Jeppesen Maersk

Last reported at 2017-Dec-15 12:00 UTC. Time now 2017-Dec-15 16:09 UTC.
Position S 21°30' E 150°24'.

Type: Ship (hazmat cat A). MMSI: 219953000.

Wind from 120 at 16 knots

Barometer 1012.9 mb
Air temperature 26.2 ° C
Visibility: greater than 10.8 NM
Dewpoint 23.0 ° C
Water temperature 27.0 ° C

Date/timePositionNaut miles runAvg speedWind from/ knotsBaromVisibWave heightAir tempDewpointWater temp
2017-Dec-15 12:00S 21°30' E 150°24'18015.0 120 / 161012.910.8 26.223.027.0
2017-Dec-15 00:00S 23°18' E 153°00'17614.7 110 / 171012.910.8 27.221.726.0
2017-Dec-14 12:00S 24°54' E 155°42'9415.7 110 / 161013.7 25.020.627.0
2017-Dec-14 06:00S 25°42' E 157°12'8914.9 130 / 161011.510.8 26.024.626.0
2017-Dec-14 00:00S 26°30' E 158°36'8914.8 120 / 171014.210.8 27.119.125.0
2017-Dec-13 18:00S 27°18' E 160°00'9315.5 120 / 151013.310.8 22.118.825.0
2017-Dec-13 12:00S 28°06' E 161°30'9315.4 090 / 141015.610.8 23.918.624.0
2017-Dec-13 06:00S 28°54' E 163°00'35314.7 100 / 81014.010.8 26.019.9
2017-Dec-12 06:00S 32°00' E 168°48'17214.3 170 / 91014.610.8 22.015.3
2017-Dec-11 18:00S 33°30' E 171°42'17614.7 130 / 121015.310.8 19.017.420.0
2017-Dec-11 06:00S 35°12' E 174°36'6215.6 010 / 121016.010.8 21.016.021.0
2017-Dec-11 01:59S 36°11' E 174°59'5 9.9
2017-Dec-11 01:30S 36°16' E 174°59'5 9.8
2017-Dec-11 01:00S 36°21' E 174°60'5 9.9
2017-Dec-11 00:30S 36°26' E 174°59'5 9.8
2017-Dec-11 00:00S 36°31' E 174°60'5 9.4
2017-Dec-10 23:30S 36°36' E 174°58'5 9.8
2017-Dec-10 23:00S 36°40' E 174°55'5 9.9
2017-Dec-10 22:29S 36°44' E 174°51'5 9.9
2017-Dec-10 22:00S 36°48' E 174°49'3 5.4
2017-Dec-10 21:29S 36°50' E 174°47'0 0.5
2017-Dec-10 21:00S 36°51' E 174°47'0 0.0
2017-Dec-10 17:46S 36°51' E 174°47'0 0.0
2017-Dec-10 17:10S 36°51' E 174°47'0 0.0
2017-Dec-10 16:40S 36°51' E 174°47'0 0.0
2017-Dec-10 16:22S 36°51' E 174°47'0 0.0
2017-Dec-10 14:52S 36°51' E 174°47'0 0.0
2017-Dec-10 12:46S 36°51' E 174°47'0 0.0
2017-Dec-10 12:28S 36°51' E 174°47'0 0.0
2017-Dec-10 11:53S 36°51' E 174°47'0 0.5
2017-Dec-10 11:30S 36°50' E 174°47'3 5.7
2017-Dec-10 11:01S 36°49' E 174°50'510.5
2017-Dec-10 10:31S 36°44' E 174°51'5 9.2
2017-Dec-10 10:01S 36°40' E 174°55'5 9.2
2017-Dec-10 09:31S 36°37' E 174°59'5 9.4
2017-Dec-10 09:00S 36°34' E 175°03'5 9.5
2017-Dec-10 08:31S 36°31' E 175°08'5 9.8
2017-Dec-10 08:00S 36°28' E 175°13'5 9.7
2017-Dec-10 07:31S 36°25' E 175°17'7913.9
2017-Dec-10 01:52S 37°27' E 176°16'617.6
2017-Dec-10 01:31S 37°33' E 176°13'611.2
2017-Dec-10 01:01S 37°38' E 176°10'2 3.5
2017-Dec-10 00:30S 37°40' E 176°11'0 0.0
2017-Dec-10 00:00S 37°40' E 176°11'0 0.0
2017-Dec-09 23:30S 37°40' E 176°11'0 0.0
2017-Dec-09 23:00S 37°40' E 176°11'0 0.0
2017-Dec-09 22:30S 37°40' E 176°11'0 0.0
2017-Dec-09 22:00S 37°40' E 176°11'0 0.0
2017-Dec-09 21:30S 37°40' E 176°11'0 0.0
2017-Dec-09 21:00S 37°40' E 176°11'0 0.0
2017-Dec-09 20:30S 37°40' E 176°11'0 0.0
2017-Dec-09 20:00S 37°40' E 176°11'0 0.0
2017-Dec-09 19:30S 37°40' E 176°11'0 0.0
2017-Dec-09 19:00S 37°40' E 176°11'0 0.0
2017-Dec-09 18:30S 37°40' E 176°11'0 0.0
2017-Dec-09 18:00S 37°40' E 176°11'0 0.0
2017-Dec-09 17:30S 37°40' E 176°11'0 0.0
2017-Dec-09 17:00S 37°40' E 176°11'0 0.0
2017-Dec-09 16:30S 37°40' E 176°11'0 0.0
2017-Dec-09 16:00S 37°40' E 176°11'0 0.0
2017-Dec-09 15:30S 37°40' E 176°11'0 0.0
2017-Dec-09 15:00S 37°40' E 176°11'0 0.0
2017-Dec-09 14:30S 37°40' E 176°11'0 0.0
2017-Dec-09 14:00S 37°40' E 176°11'0 0.0
2017-Dec-09 13:30S 37°40' E 176°11'0 0.0
2017-Dec-09 13:00S 37°40' E 176°11'0 0.0
2017-Dec-09 12:30S 37°40' E 176°11'1 2.0
2017-Dec-09 12:00S 37°39' E 176°11'4 8.3
2017-Dec-09 11:30S 37°35' E 176°12'714.8
2017-Dec-09 11:01S 37°28' E 176°16'914.8
2017-Dec-09 10:24S 37°24' E 176°26'180 4.5
2017-Dec-07 18:00S 40°24' E 176°42'   040 / 101020.010.8 17.815.317.0

Dump ship's entire track history